Time;durP1;ratioP1;P1;durP2;ratioP2;P2;SDS_P1;SDS_P2;PMS_P1;PMS_P2;Temp;Humidity;BMP_temperature;BMP_pressure;BME280_temperature;BME280_humidity;BME280_pressure;Samples;Min_cycle;Max_cycle;Signal;HPM_P1;HPM_P2
2021/12/12 00:02:07;;;;;;;34.63;15.70;;;3.00;99.90;;;;;;5055805;28;20216;-41
2021/12/12 00:04:37;;;;;;;41.73;17.33;;;3.00;99.90;;;;;;5060922;28;20275;-41
2021/12/12 00:07:09;;;;;;;42.03;16.57;;;3.00;99.90;;;;;;5073346;28;23884;-41
2021/12/12 00:09:41;;;;;;;36.97;16.73;;;3.00;99.90;;;;;;5067177;28;20237;-41
2021/12/12 00:12:14;;;;;;;37.50;16.60;;;3.00;99.90;;;;;;5059343;28;20210;-41
2021/12/12 00:14:43;;;;;;;39.17;16.77;;;3.10;99.90;;;;;;5066149;28;20233;-41
2021/12/12 00:17:12;;;;;;;38.60;17.67;;;3.10;99.90;;;;;;5051093;28;20208;-41
2021/12/12 00:19:40;;;;;;;39.50;18.27;;;3.10;99.90;;;;;;5075821;28;20203;-40
2021/12/12 00:22:10;;;;;;;41.70;17.87;;;3.10;99.90;;;;;;5061620;28;20226;-41
2021/12/12 00:24:38;;;;;;;41.23;18.27;;;3.10;99.90;;;;;;5055086;28;20230;-41
2021/12/12 00:27:05;;;;;;;39.57;19.07;;;3.00;99.90;;;;;;5058283;28;20219;-41
2021/12/12 00:29:35;;;;;;;44.50;18.80;;;3.10;99.90;;;;;;5065906;27;20229;-41
2021/12/12 00:32:06;;;;;;;45.60;18.57;;;3.10;99.90;;;;;;5044043;28;20210;-41
2021/12/12 00:34:36;;;;;;;46.53;19.53;;;3.10;99.90;;;;;;5075318;27;20218;-41
2021/12/12 00:37:04;;;;;;;41.50;18.73;;;3.10;99.90;;;;;;5057887;28;20218;-41
2021/12/12 00:39:34;;;;;;;41.80;20.20;;;3.10;99.90;;;;;;5063869;27;20196;-41
2021/12/12 00:42:06;;;;;;;45.87;20.07;;;3.10;99.90;;;;;;5053916;28;20203;-41
2021/12/12 00:44:35;;;;;;;41.40;19.40;;;3.10;99.90;;;;;;5060316;28;20233;-41
2021/12/12 00:47:06;;;;;;;47.40;19.10;;;3.10;99.90;;;;;;5056969;28;22643;-41
2021/12/12 00:49:35;;;;;;;42.93;19.53;;;3.10;99.90;;;;;;5073087;28;20215;-41
2021/12/12 00:52:03;;;;;;;45.10;18.33;;;3.10;99.90;;;;;;5052963;28;20826;-41
2021/12/12 00:54:31;;;;;;;43.33;19.20;;;3.10;99.90;;;;;;5055879;28;20219;-41
2021/12/12 00:56:59;;;;;;;38.37;18.60;;;3.20;99.90;;;;;;5056303;28;20439;-41
2021/12/12 00:59:26;;;;;;;41.63;18.70;;;3.20;99.90;;;;;;5062772;28;20786;-41
2021/12/12 01:01:55;;;;;;;42.87;19.50;;;3.20;99.90;;;;;;5040231;28;20212;-41
2021/12/12 01:04:26;;;;;;;37.67;18.83;;;3.20;99.90;;;;;;5062326;28;20235;-41
2021/12/12 01:06:55;;;;;;;39.30;19.70;;;3.20;99.90;;;;;;5042403;28;20211;-41
2021/12/12 01:09:26;;;;;;;36.53;18.83;;;3.20;99.90;;;;;;5071878;28;20223;-41
2021/12/12 01:11:56;;;;;;;35.47;18.03;;;3.20;99.90;;;;;;5051555;28;20402;-41
2021/12/12 01:14:28;;;;;;;43.70;19.53;;;3.20;99.90;;;;;;5076210;28;20226;-41
2021/12/12 01:16:59;;;;;;;37.43;18.53;;;3.20;99.90;;;;;;5044978;28;22389;-40
2021/12/12 01:19:31;;;;;;;34.90;18.10;;;3.20;99.90;;;;;;5055342;28;20210;-41
2021/12/12 01:22:02;;;;;;;42.20;19.23;;;3.20;99.90;;;;;;5048605;28;20586;-41
2021/12/12 01:24:32;;;;;;;38.70;18.93;;;3.30;99.90;;;;;;5061780;28;20256;-41
2021/12/12 01:27:00;;;;;;;43.07;18.83;;;3.20;99.90;;;;;;5064583;28;20530;-41
2021/12/12 01:29:27;;;;;;;38.23;18.17;;;3.20;99.90;;;;;;5046816;28;20231;-41
2021/12/12 01:31:59;;;;;;;36.80;19.60;;;3.30;99.90;;;;;;5060667;28;20253;-42
2021/12/12 01:34:30;;;;;;;40.13;19.63;;;3.20;99.90;;;;;;5064334;28;20235;-41
2021/12/12 01:37:22;;;;;;;36.37;20.13;;;3.20;99.90;;;;;;5065681;28;20200;-42
2021/12/12 01:39:49;;;;;;;35.60;17.80;;;3.30;99.90;;;;;;5054058;28;20202;-41
2021/12/12 01:42:20;;;;;;;33.17;17.90;;;3.30;99.90;;;;;;5055566;28;20211;-41
2021/12/12 01:44:51;;;;;;;41.17;19.10;;;3.30;99.90;;;;;;5052879;28;20853;-41
2021/12/12 01:47:23;;;;;;;30.50;17.30;;;3.30;99.90;;;;;;5034960;28;20209;-40
2021/12/12 01:49:53;;;;;;;38.10;17.67;;;3.40;99.90;;;;;;5043791;28;20225;-41
2021/12/12 01:52:23;;;;;;;35.20;17.80;;;3.40;99.90;;;;;;5070708;28;20211;-41
2021/12/12 01:54:54;;;;;;;40.73;18.77;;;3.40;99.90;;;;;;5046423;28;20218;-41
2021/12/12 01:57:27;;;;;;;33.80;17.57;;;3.40;99.90;;;;;;5063600;28;20250;-41
2021/12/12 01:59:56;;;;;;;37.37;18.07;;;3.50;99.90;;;;;;5054589;28;21062;-41
2021/12/12 02:02:27;;;;;;;41.97;18.73;;;3.50;99.90;;;;;;5057967;28;22214;-41
2021/12/12 02:04:58;;;;;;;38.30;17.10;;;3.50;99.90;;;;;;5057110;28;21354;-41
2021/12/12 02:07:27;;;;;;;37.90;18.73;;;3.50;99.90;;;;;;5083277;28;20215;-42
2021/12/12 02:09:59;;;;;;;39.00;18.23;;;3.50;99.90;;;;;;5046113;27;20500;-41
2021/12/12 02:12:26;;;;;;;42.60;20.43;;;3.50;99.90;;;;;;5076742;28;20204;-41
2021/12/12 02:14:54;;;;;;;37.20;19.00;;;3.50;99.90;;;;;;5066689;28;20230;-41
2021/12/12 02:17:30;;;;;;;39.50;19.17;;;3.50;99.90;;;;;;5056877;27;20200;-41
2021/12/12 02:20:05;;;;;;;39.80;20.40;;;3.60;99.90;;;;;;5071851;27;20720;-41
2021/12/12 02:22:51;;;;;;;43.67;19.60;;;3.60;99.90;;;;;;5063006;28;20219;-41
2021/12/12 02:36:20;;;;;;;39.93;20.40;;;3.60;99.90;;;;;;5074846;28;20316;-41
2021/12/12 02:38:51;;;;;;;38.13;20.17;;;3.70;99.90;;;;;;5070965;28;20494;-41
2021/12/12 02:41:19;;;;;;;43.93;20.20;;;3.70;99.90;;;;;;5043923;28;20702;-41
2021/12/12 02:43:50;;;;;;;41.23;20.77;;;3.70;99.90;;;;;;5068396;28;20222;-41
2021/12/12 02:46:22;;;;;;;44.73;20.97;;;3.70;99.90;;;;;;5072447;27;21011;-46
2021/12/12 02:48:52;;;;;;;39.07;20.13;;;3.60;99.90;;;;;;5050946;28;20857;-46
2021/12/12 02:51:20;;;;;;;37.53;19.57;;;3.70;99.90;;;;;;5078752;28;20307;-46
2021/12/12 02:53:52;;;;;;;38.70;19.47;;;3.70;99.90;;;;;;5053696;28;20420;-46
2021/12/12 02:56:22;;;;;;;43.57;21.23;;;3.70;99.90;;;;;;5070300;28;20218;-45
2021/12/12 02:58:50;;;;;;;41.33;20.50;;;3.70;99.90;;;;;;5020243;28;25737;-46
2021/12/12 03:01:20;;;;;;;42.47;20.60;;;3.70;99.90;;;;;;5065207;27;20888;-46
2021/12/12 03:03:49;;;;;;;45.27;20.90;;;3.80;99.90;;;;;;5040248;28;20761;-46
2021/12/12 03:06:18;;;;;;;45.53;22.17;;;3.80;99.90;;;;;;5054800;28;20198;-45
2021/12/12 03:08:51;;;;;;;36.23;18.70;;;3.80;99.90;;;;;;5064320;28;20215;-45
2021/12/12 03:11:19;;;;;;;45.13;21.47;;;3.80;99.90;;;;;;5057354;27;20204;-46
2021/12/12 03:13:46;;;;;;;38.80;20.23;;;3.80;99.90;;;;;;5055902;28;20215;-47
2021/12/12 03:16:14;;;;;;;45.93;20.83;;;3.80;99.90;;;;;;5057459;28;20566;-47
2021/12/12 03:18:43;;;;;;;40.77;20.93;;;3.80;99.90;;;;;;5052664;28;20203;-48
2021/12/12 03:21:16;;;;;;;43.40;22.07;;;3.80;99.90;;;;;;5073519;28;20195;-46
2021/12/12 03:23:45;;;;;;;42.67;21.00;;;3.80;99.90;;;;;;5061670;28;20224;-47
2021/12/12 03:26:15;;;;;;;46.20;22.43;;;3.90;99.90;;;;;;5050780;28;20228;-47
2021/12/12 03:28:46;;;;;;;50.37;23.57;;;3.90;99.90;;;;;;5057695;28;20214;-41
2021/12/12 03:31:17;;;;;;;42.33;22.47;;;3.90;99.90;;;;;;5068082;28;20514;-41
2021/12/12 03:33:44;;;;;;;52.43;21.63;;;3.90;99.90;;;;;;5052314;28;20258;-41
2021/12/12 03:36:13;;;;;;;54.77;24.37;;;3.90;99.90;;;;;;5077838;28;20210;-41
2021/12/12 03:38:43;;;;;;;47.33;23.57;;;4.00;99.90;;;;;;5057152;28;20211;-41
2021/12/12 03:41:17;;;;;;;47.87;23.47;;;4.00;99.90;;;;;;5060803;28;20599;-47
2021/12/12 03:43:45;;;;;;;49.33;23.27;;;4.00;99.90;;;;;;5060955;28;20232;-48
2021/12/12 03:46:12;;;;;;;47.40;23.17;;;4.00;99.90;;;;;;5068851;28;20205;-48
2021/12/12 03:48:44;;;;;;;50.17;24.70;;;4.00;99.90;;;;;;5063286;28;20221;-47
2021/12/12 03:51:16;;;;;;;48.90;23.77;;;4.00;99.90;;;;;;5030976;28;20765;-47
2021/12/12 03:53:44;;;;;;;49.40;24.17;;;4.10;99.90;;;;;;5063551;28;20227;-47
2021/12/12 03:56:14;;;;;;;51.50;23.00;;;4.00;99.90;;;;;;5037579;28;20208;-47
2021/12/12 03:58:42;;;;;;;49.97;24.10;;;4.10;99.90;;;;;;5054889;28;20218;-48
2021/12/12 04:01:12;;;;;;;44.50;24.03;;;4.10;99.90;;;;;;5060714;28;20504;-48
2021/12/12 04:03:41;;;;;;;43.10;23.97;;;4.10;99.90;;;;;;5061746;28;20231;-47
2021/12/12 04:06:12;;;;;;;49.20;23.97;;;4.10;99.90;;;;;;5046856;28;20196;-48
2021/12/12 04:08:43;;;;;;;55.07;24.63;;;4.10;99.90;;;;;;5070451;28;20204;-46
2021/12/12 04:11:16;;;;;;;55.00;25.30;;;4.10;99.90;;;;;;5066870;28;20315;-47
2021/12/12 04:13:45;;;;;;;49.57;24.43;;;4.10;99.90;;;;;;5049367;28;20231;-46
2021/12/12 04:16:12;;;;;;;43.80;22.63;;;4.10;99.90;;;;;;5073862;28;20203;-46
2021/12/12 04:18:40;;;;;;;50.23;23.40;;;4.10;99.90;;;;;;5066714;27;20204;-46
2021/12/12 04:21:07;;;;;;;48.80;23.23;;;4.10;99.90;;;;;;5057158;27;20207;-46
2021/12/12 04:23:34;;;;;;;49.77;23.83;;;4.10;99.90;;;;;;5066109;28;20226;-46
2021/12/12 04:26:12;;;;;;;46.83;23.13;;;4.10;99.90;;;;;;5058515;27;20210;-47
2021/12/12 04:28:42;;;;;;;42.90;22.37;;;4.10;99.90;;;;;;5056024;28;20207;-47
2021/12/12 04:31:09;;;;;;;47.60;23.67;;;4.20;99.90;;;;;;5075061;28;20216;-46
2021/12/12 04:33:36;;;;;;;40.23;23.07;;;4.20;99.90;;;;;;5060718;28;20234;-47
2021/12/12 04:36:04;;;;;;;51.93;24.13;;;4.20;99.90;;;;;;5060822;28;20204;-48
2021/12/12 04:38:31;;;;;;;41.50;21.97;;;4.20;99.90;;;;;;5070295;28;20302;-48
2021/12/12 04:40:58;;;;;;;39.73;21.87;;;4.20;99.90;;;;;;5053439;28;20313;-47
2021/12/12 04:43:25;;;;;;;48.77;20.87;;;4.20;99.90;;;;;;5070690;28;20221;-47
2021/12/12 04:46:07;;;;;;;40.67;21.67;;;4.20;99.90;;;;;;5051128;28;20218;-48
2021/12/12 04:51:34;;;;;;;41.83;18.93;;;4.30;99.90;;;;;;5060983;28;20281;-48
2021/12/12 04:54:09;;;;;;;37.40;18.83;;;4.30;99.90;;;;;;5063756;28;20235;-48
2021/12/12 04:56:44;;;;;;;35.20;19.07;;;4.30;99.90;;;;;;5057279;28;20215;-47
2021/12/12 04:59:18;;;;;;;32.57;18.20;;;4.30;99.90;;;;;;5059001;28;20712;-47
2021/12/12 05:01:55;;;;;;;34.87;16.43;;;4.30;99.90;;;;;;5052392;28;20213;-47
2021/12/12 05:04:27;;;;;;;35.40;18.80;;;4.30;99.90;;;;;;5068436;28;20785;-48
2021/12/12 05:06:59;;;;;;;27.83;16.63;;;4.30;99.90;;;;;;5036511;28;20208;-48
2021/12/12 05:09:32;;;;;;;32.77;17.03;;;4.30;99.90;;;;;;5065263;28;20315;-48
2021/12/12 05:12:05;;;;;;;31.70;16.53;;;4.30;99.90;;;;;;5064506;28;20211;-47
2021/12/12 05:14:36;;;;;;;30.57;16.13;;;4.30;99.90;;;;;;5057956;28;20718;-47
2021/12/12 05:17:10;;;;;;;27.27;15.93;;;4.30;99.90;;;;;;5054073;28;20268;-48
2021/12/12 05:19:39;;;;;;;29.63;15.43;;;4.30;99.90;;;;;;5074575;28;20199;-48
2021/12/12 05:22:11;;;;;;;33.87;16.60;;;4.30;99.90;;;;;;5032326;28;23546;-48
2021/12/12 05:24:39;;;;;;;31.77;15.13;;;4.30;99.90;;;;;;5071404;28;20231;-48
2021/12/12 05:27:12;;;;;;;30.40;14.97;;;4.30;99.90;;;;;;5052307;27;20210;-42
2021/12/12 05:29:42;;;;;;;28.77;15.00;;;4.30;99.90;;;;;;5072388;28;20221;-42
2021/12/12 05:32:13;;;;;;;28.53;13.57;;;4.30;99.90;;;;;;5046197;28;20200;-42
2021/12/12 05:34:42;;;;;;;29.37;13.50;;;4.30;99.90;;;;;;5073789;28;21293;-42
2021/12/12 05:37:13;;;;;;;28.33;13.17;;;4.30;99.90;;;;;;5043140;28;20223;-42
2021/12/12 05:39:40;;;;;;;25.63;13.27;;;4.40;99.90;;;;;;5058165;28;20196;-42
2021/12/12 05:42:07;;;;;;;31.23;13.07;;;4.30;99.90;;;;;;5061756;28;20216;-42
2021/12/12 05:44:35;;;;;;;25.23;13.57;;;4.30;99.90;;;;;;5058676;28;20242;-42
2021/12/12 05:47:04;;;;;;;32.40;13.27;;;4.30;99.90;;;;;;5055742;28;20207;-43
2021/12/12 05:49:33;;;;;;;25.40;12.33;;;4.40;99.90;;;;;;5063704;28;20292;-42
2021/12/12 05:52:00;;;;;;;27.13;12.80;;;4.40;99.90;;;;;;5066048;28;20219;-42
2021/12/12 05:54:29;;;;;;;27.40;13.00;;;4.30;99.90;;;;;;5048644;28;20231;-42
2021/12/12 05:56:58;;;;;;;24.53;12.80;;;4.30;99.90;;;;;;5072921;28;20210;-42
2021/12/12 05:59:25;;;;;;;23.40;12.40;;;4.40;99.90;;;;;;5048472;28;20207;-43
2021/12/12 06:01:52;;;;;;;29.33;13.00;;;4.40;99.90;;;;;;5052134;28;20690;-42
2021/12/12 06:04:20;;;;;;;24.67;12.53;;;4.40;99.90;;;;;;5051278;28;21581;-42
2021/12/12 06:06:49;;;;;;;33.07;12.60;;;4.40;99.90;;;;;;5071972;28;20203;-42
2021/12/12 06:09:18;;;;;;;26.43;12.27;;;4.40;99.90;;;;;;5033992;28;20954;-42
2021/12/12 06:11:48;;;;;;;25.80;12.07;;;4.40;99.90;;;;;;5069466;28;20234;-43
2021/12/12 06:14:16;;;;;;;19.80;10.53;;;4.40;99.90;;;;;;5050515;28;20239;-43
2021/12/12 06:16:43;;;;;;;23.90;11.50;;;4.40;99.90;;;;;;5055493;28;20224;-42
2021/12/12 06:19:15;;;;;;;21.37;12.03;;;4.40;99.90;;;;;;5046183;28;20210;-43
2021/12/12 06:21:43;;;;;;;27.13;11.83;;;4.40;99.90;;;;;;5077810;28;20575;-42
2021/12/12 06:24:13;;;;;;;18.73;10.77;;;4.50;99.90;;;;;;5052159;28;20697;-42
2021/12/12 06:26:40;;;;;;;19.07;10.63;;;4.50;99.90;;;;;;5073152;28;20205;-42
2021/12/12 06:29:08;;;;;;;24.90;11.77;;;4.50;99.90;;;;;;5061982;28;20211;-42
2021/12/12 06:31:37;;;;;;;24.10;11.50;;;4.50;99.90;;;;;;5044936;28;20256;-43
2021/12/12 06:34:04;;;;;;;21.53;10.47;;;4.50;99.90;;;;;;5060638;28;20962;-42
2021/12/12 06:36:32;;;;;;;19.20;11.47;;;4.50;99.90;;;;;;5068525;28;20189;-42
2021/12/12 06:39:00;;;;;;;17.17;9.70;;;4.50;99.90;;;;;;5067105;28;20218;-42
2021/12/12 06:41:29;;;;;;;21.07;9.63;;;4.50;99.90;;;;;;5045164;28;21371;-42
2021/12/12 06:43:56;;;;;;;16.73;9.37;;;4.50;99.90;;;;;;5064204;28;20223;-42
2021/12/12 06:46:25;;;;;;;17.17;10.37;;;4.50;99.90;;;;;;5041387;28;20254;-42
2021/12/12 06:48:52;;;;;;;18.43;9.80;;;4.50;99.90;;;;;;5074334;28;20235;-42
2021/12/12 06:51:19;;;;;;;17.47;9.33;;;4.50;99.90;;;;;;5060054;27;20216;-42
2021/12/12 06:53:48;;;;;;;17.43;9.93;;;4.50;99.90;;;;;;5064961;28;20376;-42
2021/12/12 06:56:17;;;;;;;12.43;8.27;;;4.50;99.90;;;;;;5050869;28;20204;-42
2021/12/12 06:58:46;;;;;;;19.53;9.17;;;4.50;99.90;;;;;;5078578;28;20211;-42
2021/12/12 07:01:16;;;;;;;16.87;9.97;;;4.50;99.90;;;;;;5061970;28;20207;-42
2021/12/12 07:03:43;;;;;;;19.27;9.77;;;4.50;99.90;;;;;;5034991;28;20220;-42
2021/12/12 07:06:10;;;;;;;15.97;9.90;;;4.50;99.90;;;;;;5072928;28;20203;-42
2021/12/12 07:08:38;;;;;;;16.53;8.80;;;4.60;99.90;;;;;;5052508;27;20335;-42
2021/12/12 07:11:06;;;;;;;15.33;8.70;;;4.50;99.90;;;;;;5033259;28;20595;-42
2021/12/12 07:13:34;;;;;;;14.73;8.33;;;4.60;99.90;;;;;;5076145;28;20731;-42
2021/12/12 07:16:05;;;;;;;14.93;8.10;;;4.60;99.90;;;;;;5042150;28;23248;-43
2021/12/12 07:18:35;;;;;;;14.00;9.43;;;4.60;99.90;;;;;;5041949;28;21127;-42
2021/12/12 07:21:06;;;;;;;14.70;7.90;;;4.60;99.90;;;;;;5050542;28;20196;-43
2021/12/12 07:23:35;;;;;;;12.27;7.73;;;4.60;99.90;;;;;;5067216;28;20227;-42
2021/12/12 07:26:03;;;;;;;15.33;8.10;;;4.60;99.90;;;;;;5058840;28;20213;-43
2021/12/12 07:28:34;;;;;;;14.03;8.13;;;4.60;99.90;;;;;;5039371;28;20212;-43
2021/12/12 07:31:06;;;;;;;14.77;7.20;;;4.60;99.90;;;;;;5038553;28;20231;-48
2021/12/12 07:33:35;;;;;;;13.93;7.87;;;4.60;99.90;;;;;;5033720;28;20670;-42
2021/12/12 07:36:05;;;;;;;12.30;7.93;;;4.60;99.90;;;;;;5050456;27;20211;-43
2021/12/12 07:38:34;;;;;;;12.63;7.30;;;4.70;99.90;;;;;;5046793;28;20312;-43
2021/12/12 07:41:04;;;;;;;12.03;7.00;;;4.70;99.90;;;;;;5056749;27;20203;-43
2021/12/12 07:43:32;;;;;;;10.97;7.43;;;4.70;99.90;;;;;;5053810;27;20223;-43
2021/12/12 07:46:00;;;;;;;12.00;7.00;;;4.70;99.90;;;;;;5052367;28;20207;-43
2021/12/12 07:48:28;;;;;;;12.30;7.00;;;4.70;99.90;;;;;;5033694;28;20633;-43
2021/12/12 07:50:57;;;;;;;14.53;7.27;;;4.70;99.90;;;;;;5045616;28;20474;-47
2021/12/12 07:53:25;;;;;;;11.23;6.97;;;4.70;99.90;;;;;;5074690;28;20743;-46
2021/12/12 07:55:55;;;;;;;11.67;7.10;;;4.70;99.90;;;;;;5048434;28;20219;-47
2021/12/12 07:58:22;;;;;;;9.33;6.50;;;4.70;99.90;;;;;;5052143;28;20682;-47
2021/12/12 08:00:51;;;;;;;11.20;6.73;;;4.70;99.90;;;;;;5079724;28;20719;-46
2021/12/12 08:03:23;;;;;;;9.80;6.00;;;4.70;99.90;;;;;;5043961;28;20277;-46
2021/12/12 08:05:52;;;;;;;8.30;5.73;;;4.70;99.90;;;;;;5066040;28;20204;-47
2021/12/12 08:08:19;;;;;;;9.70;6.43;;;4.70;99.90;;;;;;5058883;28;20202;-47
2021/12/12 08:10:49;;;;;;;7.60;5.77;;;4.70;99.90;;;;;;5047728;28;20230;-46
2021/12/12 08:13:16;;;;;;;10.63;6.03;;;4.80;99.90;;;;;;5054356;28;20235;-47
2021/12/12 08:15:44;;;;;;;8.73;6.17;;;4.80;99.90;;;;;;5070160;28;20770;-46
2021/12/12 08:18:15;;;;;;;9.83;5.53;;;4.80;99.90;;;;;;5060440;28;20200;-46
2021/12/12 08:20:43;;;;;;;7.73;6.07;;;4.70;99.90;;;;;;5063465;28;20740;-47
2021/12/12 08:23:13;;;;;;;7.43;5.40;;;4.70;99.90;;;;;;5061303;28;20714;-43
2021/12/12 08:25:41;;;;;;;8.77;6.47;;;4.80;99.90;;;;;;5064444;28;20392;-43
2021/12/12 08:28:09;;;;;;;6.97;5.93;;;4.90;99.90;;;;;;5061175;27;20946;-43
2021/12/12 08:30:37;;;;;;;7.03;5.40;;;4.80;99.90;;;;;;5061993;28;20570;-43
2021/12/12 08:33:07;;;;;;;8.30;5.83;;;4.80;99.90;;;;;;5080877;28;20933;-43
2021/12/12 08:35:38;;;;;;;8.07;6.17;;;4.80;99.90;;;;;;5051127;28;25324;-43
2021/12/12 08:38:07;;;;;;;9.50;6.57;;;4.80;99.90;;;;;;5066200;27;20210;-46
2021/12/12 08:40:45;;;;;;;7.30;6.03;;;4.90;99.90;;;;;;5056039;28;20210;-46
2021/12/12 08:43:14;;;;;;;7.27;6.07;;;4.90;99.90;;;;;;5045777;28;20649;-46
2021/12/12 08:45:43;;;;;;;9.23;6.80;;;4.90;99.90;;;;;;5058546;28;20727;-46
2021/12/12 08:48:11;;;;;;;8.47;6.20;;;4.90;99.90;;;;;;5071197;28;20195;-46
2021/12/12 08:50:41;;;;;;;9.17;6.30;;;5.00;99.90;;;;;;5047814;28;20709;-46
2021/12/12 08:53:09;;;;;;;10.13;6.97;;;4.90;99.90;;;;;;5072361;28;20204;-46
2021/12/12 08:55:43;;;;;;;8.17;6.40;;;5.00;99.90;;;;;;5058865;27;20500;-47
2021/12/12 08:58:15;;;;;;;7.80;5.70;;;5.00;99.90;;;;;;5040496;28;21048;-47
2021/12/12 09:00:48;;;;;;;7.33;5.87;;;5.00;99.90;;;;;;5045225;28;20349;-47
2021/12/12 09:03:18;;;;;;;8.17;5.27;;;5.00;99.90;;;;;;5056682;28;20717;-48
2021/12/12 09:05:47;;;;;;;6.27;5.67;;;5.00;99.90;;;;;;5063393;28;20210;-42
2021/12/12 09:08:18;;;;;;;6.03;5.23;;;5.10;99.90;;;;;;5073767;28;20204;-42
2021/12/12 09:10:51;;;;;;;6.40;5.50;;;5.10;99.90;;;;;;5051734;28;20235;-41
2021/12/12 09:13:22;;;;;;;6.97;5.13;;;5.10;99.90;;;;;;5062700;28;20222;-42
2021/12/12 09:15:56;;;;;;;7.23;5.90;;;5.10;99.90;;;;;;5050225;28;20747;-42
2021/12/12 09:18:28;;;;;;;6.83;5.83;;;5.10;99.90;;;;;;5057448;28;20207;-41
2021/12/12 09:21:01;;;;;;;8.60;5.80;;;5.20;99.90;;;;;;5034143;28;21308;-42
2021/12/12 09:23:32;;;;;;;7.47;5.80;;;5.20;99.90;;;;;;5063402;28;20292;-41
2021/12/12 09:26:05;;;;;;;6.47;5.80;;;5.20;99.90;;;;;;5054798;28;20196;-41
2021/12/12 09:28:40;;;;;;;10.03;5.83;;;5.20;99.90;;;;;;5049347;28;20243;-41
2021/12/12 09:31:13;;;;;;;6.33;5.53;;;5.20;99.90;;;;;;5036107;28;20223;-41
2021/12/12 09:33:46;;;;;;;7.47;5.90;;;5.20;99.90;;;;;;5068319;28;20223;-42
2021/12/12 09:36:17;;;;;;;7.33;6.30;;;5.20;99.90;;;;;;5068999;28;20204;-41
2021/12/12 09:38:49;;;;;;;10.37;6.23;;;5.20;99.90;;;;;;5044177;28;20735;-41
2021/12/12 09:41:46;;;;;;;8.70;6.03;;;5.20;99.90;;;;;;5049689;28;20607;-41
2021/12/12 09:44:57;;;;;;;8.73;6.73;;;5.30;99.90;;;;;;5048659;28;20280;-42
2021/12/12 09:47:57;;;;;;;6.80;6.10;;;5.30;99.90;;;;;;4965428;28;20647;-41
2021/12/12 09:53:42;;;;;;;7.33;6.63;;;5.30;99.90;;;;;;5050335;28;20310;-42
2021/12/12 09:56:22;;;;;;;8.83;7.03;;;5.30;99.90;;;;;;5076593;28;20207;-42
2021/12/12 09:59:03;;;;;;;7.97;6.63;;;5.30;99.90;;;;;;5037056;28;20211;-41
2021/12/12 10:01:33;;;;;;;11.67;6.97;;;5.40;99.90;;;;;;5049338;28;20265;-42
2021/12/12 10:04:22;;;;;;;7.50;6.80;;;5.40;99.90;;;;;;5059425;28;20220;-41
2021/12/12 10:06:59;;;;;;;8.77;6.63;;;5.40;99.90;;;;;;5060879;28;20263;-46
2021/12/12 10:09:34;;;;;;;9.40;7.20;;;5.40;99.90;;;;;;5041288;28;20223;-42
2021/12/12 10:12:05;;;;;;;10.23;6.97;;;5.40;99.90;;;;;;5061310;28;20584;-42
2021/12/12 10:14:42;;;;;;;9.43;6.70;;;5.40;99.90;;;;;;5048020;28;20677;-42
2021/12/12 10:17:13;;;;;;;8.33;7.40;;;5.50;99.90;;;;;;5048679;28;21206;-47
2021/12/12 10:19:48;;;;;;;8.73;7.63;;;5.50;99.90;;;;;;5043971;28;20213;-47
2021/12/12 10:22:26;;;;;;;9.03;6.90;;;5.50;99.90;;;;;;5048164;28;20741;-42
2021/12/12 10:25:01;;;;;;;7.60;6.80;;;5.50;99.90;;;;;;5048424;28;20223;-42
2021/12/12 10:27:34;;;;;;;9.07;7.33;;;5.60;99.90;;;;;;5067117;28;20211;-42
2021/12/12 10:30:10;;;;;;;7.37;6.57;;;5.60;99.90;;;;;;5061573;27;20206;-41
2021/12/12 10:32:46;;;;;;;7.23;6.53;;;5.60;99.90;;;;;;5066928;28;20222;-42
2021/12/12 10:35:18;;;;;;;8.73;7.37;;;5.70;99.90;;;;;;5055691;28;20224;-41
2021/12/12 10:37:53;;;;;;;6.80;6.13;;;5.70;99.90;;;;;;5072060;27;20284;-47
2021/12/12 10:40:24;;;;;;;10.80;7.50;;;5.70;99.90;;;;;;5051301;28;20214;-47
2021/12/12 10:42:55;;;;;;;9.13;7.93;;;5.70;99.90;;;;;;5062814;27;20303;-48
2021/12/12 10:45:28;;;;;;;11.13;8.27;;;5.70;99.90;;;;;;5051763;28;20251;-47
2021/12/12 10:47:58;;;;;;;8.53;7.47;;;5.70;99.90;;;;;;5054803;28;20409;-47
2021/12/12 10:50:33;;;;;;;10.87;8.90;;;5.70;99.90;;;;;;5059027;28;20599;-48
2021/12/12 10:53:05;;;;;;;13.17;9.80;;;5.70;99.90;;;;;;5070231;27;20249;-48
2021/12/12 10:55:38;;;;;;;11.77;9.03;;;5.80;99.90;;;;;;5055485;28;20343;-48
2021/12/12 10:58:10;;;;;;;14.03;10.23;;;5.70;99.90;;;;;;5057978;28;20211;-47
2021/12/12 11:00:43;;;;;;;13.77;9.70;;;5.80;99.90;;;;;;5060699;28;20209;-48
2021/12/12 11:03:15;;;;;;;13.80;9.60;;;5.80;99.90;;;;;;5077405;27;20405;-47
2021/12/12 11:05:46;;;;;;;10.37;9.07;;;5.80;99.90;;;;;;5043228;27;20196;-47
2021/12/12 11:08:24;;;;;;;11.87;9.23;;;5.80;99.90;;;;;;5063222;27;20207;-48
2021/12/12 11:10:54;;;;;;;11.73;8.53;;;5.80;99.90;;;;;;5045054;28;20697;-48
2021/12/12 11:13:28;;;;;;;12.47;8.90;;;5.90;99.90;;;;;;5060016;28;20227;-47
2021/12/12 11:16:03;;;;;;;10.63;8.80;;;5.90;99.90;;;;;;5049156;28;20472;-47
2021/12/12 11:18:35;;;;;;;11.27;9.43;;;5.90;99.90;;;;;;5067559;27;20204;-47
2021/12/12 11:21:09;;;;;;;12.57;9.97;;;5.90;99.90;;;;;;5043766;27;20213;-47
2021/12/12 11:23:42;;;;;;;15.27;10.57;;;6.00;99.90;;;;;;5067960;27;20231;-47
2021/12/12 11:26:18;;;;;;;13.33;10.17;;;6.00;99.90;;;;;;5065771;27;20752;-47
2021/12/12 11:28:47;;;;;;;12.07;9.20;;;6.00;99.90;;;;;;5043621;28;20304;-47
2021/12/12 11:31:18;;;;;;;11.23;9.50;;;6.10;99.90;;;;;;5052768;28;20216;-46
2021/12/12 11:33:49;;;;;;;12.40;10.17;;;6.10;99.90;;;;;;5047694;28;20230;-48
2021/12/12 11:36:21;;;;;;;14.63;10.77;;;6.10;99.90;;;;;;5045016;28;20572;-42
2021/12/12 11:38:53;;;;;;;14.37;10.13;;;6.10;99.90;;;;;;5066383;27;20279;-42
2021/12/12 11:41:29;;;;;;;14.60;11.00;;;6.10;99.90;;;;;;5050549;28;20222;-47
2021/12/12 11:44:08;;;;;;;13.93;10.27;;;6.10;99.90;;;;;;5060795;28;20295;-47
2021/12/12 11:46:43;;;;;;;11.33;8.97;;;6.20;99.90;;;;;;5029625;28;20203;-52
2021/12/12 11:49:17;;;;;;;82.13;11.40;;;6.30;99.90;;;;;;5059869;27;20207;-46
2021/12/12 11:51:50;;;;;;;33.60;8.63;;;6.30;99.90;;;;;;5046646;28;20512;-47
2021/12/12 11:54:27;;;;;;;19.03;9.10;;;6.30;99.90;;;;;;5061204;28;20338;-47
2021/12/12 11:57:03;;;;;;;46.87;10.60;;;6.20;99.90;;;;;;5078183;28;20771;-47
2021/12/12 11:59:36;;;;;;;24.73;8.40;;;6.30;99.90;;;;;;5062766;28;20198;-47
2021/12/12 12:02:26;;;;;;;19.17;7.00;;;6.20;99.90;;;;;;5042515;28;20196;-46
2021/12/12 12:05:04;;;;;;;18.30;8.17;;;6.40;99.90;;;;;;5063343;28;20350;-47
2021/12/12 12:07:43;;;;;;;10.23;7.53;;;6.70;99.90;;;;;;5040418;28;20203;-46
2021/12/12 12:10:12;;;;;;;9.50;7.17;;;6.60;99.90;;;;;;5066656;28;20211;-46
2021/12/12 12:12:57;;;;;;;9.10;6.83;;;6.60;99.90;;;;;;5062828;28;20235;-42
2021/12/12 12:15:34;;;;;;;8.00;7.03;;;6.60;99.90;;;;;;5047453;28;20287;-42
2021/12/12 12:18:12;;;;;;;8.87;7.13;;;6.50;99.90;;;;;;5058566;28;20202;-42
2021/12/12 12:20:47;;;;;;;8.17;6.83;;;6.50;99.90;;;;;;5061830;28;20204;-42
2021/12/12 12:23:33;;;;;;;7.30;6.37;;;6.50;99.90;;;;;;5037055;27;20713;-42
2021/12/12 12:29:05;;;;;;;7.80;6.67;;;6.50;99.90;;;;;;5069898;28;20208;-42
2021/12/12 12:32:15;;;;;;;8.80;7.20;;;6.50;99.90;;;;;;5057928;28;20214;-42
2021/12/12 12:35:20;;;;;;;9.03;6.63;;;6.50;99.90;;;;;;5064829;28;20683;-43
2021/12/12 12:38:24;;;;;;;8.63;6.73;;;6.50;99.90;;;;;;5055509;28;20216;-48
2021/12/12 12:41:37;;;;;;;7.50;6.13;;;6.50;99.90;;;;;;5069406;28;20324;-48
2021/12/12 12:44:54;;;;;;;8.60;6.83;;;6.50;99.90;;;;;;5058471;28;20310;-43
2021/12/12 12:48:07;;;;;;;9.13;7.07;;;6.50;99.90;;;;;;5050975;28;21007;-43
2021/12/12 12:51:08;;;;;;;12.53;6.47;;;6.60;99.90;;;;;;5055003;28;21284;-43
2021/12/12 12:54:15;;;;;;;7.60;5.97;;;6.60;99.90;;;;;;5038697;28;20234;-42
2021/12/12 12:57:17;;;;;;;6.93;5.90;;;6.60;99.90;;;;;;5054705;28;20205;-46
2021/12/12 13:00:10;;;;;;;8.97;6.80;;;6.60;99.90;;;;;;4996544;28;20301;-43
2021/12/12 13:03:10;;;;;;;8.33;6.00;;;6.60;99.90;;;;;;5040726;28;20217;-42
2021/12/12 13:05:59;;;;;;;7.87;5.90;;;6.70;99.90;;;;;;5026328;28;20192;-46
2021/12/12 13:09:10;;;;;;;8.13;5.60;;;6.60;99.90;;;;;;5033582;28;20210;-43
2021/12/12 13:11:45;;;;;;;7.73;5.93;;;6.70;99.90;;;;;;5042670;28;20216;-46
2021/12/12 13:14:24;;;;;;;7.43;6.30;;;6.70;99.90;;;;;;5032051;28;20229;-48
2021/12/12 13:17:03;;;;;;;7.27;6.30;;;6.70;99.90;;;;;;5064601;28;20294;-47
2021/12/12 13:19:39;;;;;;;8.93;6.23;;;6.80;99.90;;;;;;5031141;28;20203;-42
2021/12/12 13:22:11;;;;;;;8.57;6.27;;;6.80;99.90;;;;;;5057606;28;20207;-46
2021/12/12 13:24:47;;;;;;;7.57;6.60;;;6.80;99.90;;;;;;5043805;28;20937;-43
2021/12/12 13:27:28;;;;;;;9.20;6.73;;;7.10;99.90;;;;;;5044803;28;21378;-46
2021/12/12 13:30:06;;;;;;;9.93;6.80;;;7.10;99.90;;;;;;5042894;28;20211;-46
2021/12/12 13:32:50;;;;;;;8.93;6.80;;;7.30;99.90;;;;;;5061140;28;20296;-48
2021/12/12 13:35:21;;;;;;;6.50;5.90;;;7.40;99.90;;;;;;5050476;28;20204;-41